新メニュー考案中!!

LUXURY FLIGHT

03-6423-7371

羽田本店:東京都大田区羽田5-11-1
営業時間:10:00~20:00
定休日:毎週 月曜日
セントレア店:愛知県常滑市セントレア1-1
営業時間:10:00~20:00 年中無休

lv

新メニュー考案中!!

STAFF BLOG

2019/10/28 新メニュー考案中!!

おはようございます

 

本日の羽田周辺のMETARは…

RJTT 280230Z 07009KT 9999 FEW020 SCT050 19/12 Q1018

NOSIG RMK 1CU020 4SC050 A3008

 

過ごしやすい秋晴れ!といった感じです

 

 

さて、本日は空いた時間で新メニューの考案中

 

常連の皆様がだいぶ腕を上げて来られましたので、

より本格的で難易度の高いアプローチを楽しんでいただきたくっ

 

img_3448

 

また、来年年明けの、ビッグなニュースに向けての

事前準備も兼ねております

 

 

img_3450

 

 

引続き、皆さまに最高のフライトを楽しんで頂けますよう、

スタッフ一同全力で精進してまいりまーす

 

img_3449

 

 

P.S

MCPのV/Sってこんな風に触るとカッコいいんですね!!!

真似しちゃお。笑

 

プロの何気ないこんな一挙一投足でさえ、多くの学びになります。

 

 

 

 

いつもブログを読んでくださり本当にありがとうございます。

 

「感謝」

 

 

TOP